Time;durP1;ratioP1;P1;durP2;ratioP2;P2;SDS_P1;SDS_P2;PMS_P1;PMS_P2;Temp;Humidity;BMP_temperature;BMP_pressure;BME280_temperature;BME280_humidity;BME280_pressure;Samples;Min_cycle;Max_cycle;Signal;HPM_P1;HPM_P2
2021/07/06 00:00:58;;;;;;;11.75;7.50;;;;;;;18.73;63.48;99787.84;154013;1096;103187;-73
2021/07/06 00:04:04;;;;;;;9.85;7.55;;;;;;;18.73;63.44;99787.03;153927;1101;103173;-73
2021/07/06 00:07:09;;;;;;;7.90;7.10;;;;;;;18.71;63.44;99784.53;153954;1101;103118;-75
2021/07/06 00:10:16;;;;;;;8.98;7.70;;;;;;;18.65;63.52;99788.11;153950;1096;103191;-74
2021/07/06 00:13:21;;;;;;;8.90;7.60;;;;;;;18.63;63.32;99795.61;153954;1101;103186;-75
2021/07/06 00:16:27;;;;;;;8.85;7.63;;;;;;;18.60;63.69;99782.52;153930;1096;103123;-75
2021/07/06 00:19:31;;;;;;;8.80;7.87;;;;;;;18.57;63.66;99793.75;153938;1101;103163;-74
2021/07/06 00:22:36;;;;;;;9.50;8.03;;;;;;;18.50;63.72;99785.70;153946;1101;103153;-75
2021/07/06 00:25:42;;;;;;;7.83;7.03;;;;;;;18.42;63.80;99792.19;153946;1095;103240;-75
2021/07/06 00:28:47;;;;;;;7.37;6.57;;;;;;;18.41;63.85;99795.09;153948;1101;103125;-74
2021/07/06 00:31:52;;;;;;;9.50;7.57;;;;;;;18.40;63.94;99791.57;153930;1101;103203;-75
2021/07/06 00:34:57;;;;;;;7.75;6.90;;;;;;;18.39;63.95;99792.61;153933;1101;103286;-74
2021/07/06 00:38:01;;;;;;;8.20;7.40;;;;;;;18.37;63.96;99797.39;153957;1101;103119;-74
2021/07/06 00:41:07;;;;;;;8.88;7.98;;;;;;;18.34;64.13;99789.74;153950;1101;103211;-74
2021/07/06 00:44:16;;;;;;;8.37;7.57;;;;;;;18.31;64.00;99794.74;153988;1096;103196;-73
2021/07/06 00:47:33;;;;;;;8.00;7.08;;;;;;;18.26;64.11;99789.97;153967;1101;103185;-73
2021/07/06 00:50:38;;;;;;;9.55;7.75;;;;;;;18.20;64.16;99798.93;153959;1101;103128;-73
2021/07/06 00:53:43;;;;;;;9.85;7.95;;;;;;;18.15;64.18;99814.94;153969;1095;103127;-74
2021/07/06 00:56:49;;;;;;;7.95;7.03;;;;;;;18.09;64.38;99823.89;153959;1101;103305;-73
2021/07/06 00:59:55;;;;;;;7.47;6.77;;;;;;;18.08;64.52;99819.55;153950;1101;103221;-74
2021/07/06 01:03:00;;;;;;;8.28;6.90;;;;;;;18.07;64.36;99821.40;153964;1096;103131;-75
2021/07/06 01:06:07;;;;;;;8.18;7.38;;;;;;;18.04;64.31;99817.27;153916;1101;103150;-75
2021/07/06 01:09:13;;;;;;;8.60;7.63;;;;;;;18.04;64.38;99822.66;153973;1101;103191;-75
2021/07/06 01:12:18;;;;;;;8.60;7.68;;;;;;;18.01;64.39;99817.70;154013;1101;103270;-75
2021/07/06 01:15:26;;;;;;;8.58;7.78;;;;;;;17.97;64.42;99824.55;153986;1101;103226;-75
2021/07/06 01:18:31;;;;;;;8.37;7.57;;;;;;;17.94;64.63;99830.39;153978;1096;103512;-75
2021/07/06 01:21:36;;;;;;;10.35;8.10;;;;;;;17.88;64.29;99828.55;153933;1101;103123;-74
2021/07/06 01:24:41;;;;;;;8.65;7.73;;;;;;;17.81;64.62;99827.69;153961;1101;103122;-73
2021/07/06 01:27:46;;;;;;;7.83;7.03;;;;;;;17.75;64.62;99828.53;153960;1101;103227;-73
2021/07/06 01:30:51;;;;;;;8.15;6.80;;;;;;;17.72;64.61;99824.37;153963;1101;103253;-74
2021/07/06 01:33:58;;;;;;;8.50;7.10;;;;;;;17.72;64.60;99824.37;153955;1095;103589;-75
2021/07/06 01:37:03;;;;;;;7.78;6.98;;;;;;;17.70;64.64;99825.63;153952;1101;103122;-73
2021/07/06 01:40:11;;;;;;;8.40;7.60;;;;;;;17.65;64.79;99829.79;153979;1096;103547;-73
2021/07/06 01:43:16;;;;;;;8.23;7.43;;;;;;;17.63;64.69;99825.66;153958;1096;103227;-74
2021/07/06 01:46:21;;;;;;;8.50;7.63;;;;;;;17.62;64.88;99818.58;153984;1101;103107;-75
2021/07/06 01:49:26;;;;;;;8.73;7.80;;;;;;;17.58;64.60;99826.27;153962;1101;103222;-74
2021/07/06 01:52:30;;;;;;;8.93;7.38;;;;;;;17.54;64.72;99833.12;153912;1101;103215;-74
2021/07/06 01:55:37;;;;;;;8.78;7.95;;;;;;;17.50;64.97;99826.48;153956;1101;103139;-75
2021/07/06 01:58:42;;;;;;;10.63;7.80;;;;;;;17.47;64.94;99826.89;153946;1101;103174;-72
2021/07/06 02:01:47;;;;;;;8.37;6.83;;;;;;;17.42;65.10;99827.53;154146;1101;103479;-75
2021/07/06 02:04:53;;;;;;;8.37;7.03;;;;;;;17.43;64.86;99828.35;154331;1096;103503;-76
2021/07/06 02:07:59;;;;;;;8.00;7.03;;;;;;;17.42;65.03;99830.23;154142;1101;103102;-77
2021/07/06 02:11:04;;;;;;;7.87;7.17;;;;;;;17.39;64.92;99836.02;153956;1096;103166;-75
2021/07/06 02:14:09;;;;;;;7.97;7.17;;;;;;;17.36;64.72;99836.46;153932;1101;103181;-75
2021/07/06 02:17:14;;;;;;;8.73;7.93;;;;;;;17.31;64.79;99840.81;153958;1101;103217;-76
2021/07/06 02:20:21;;;;;;;9.50;7.80;;;;;;;17.23;65.04;99829.19;153950;1101;103239;-75
2021/07/06 02:23:27;;;;;;;8.97;8.17;;;;;;;17.19;64.79;99836.03;153983;1101;103128;-74
2021/07/06 02:26:32;;;;;;;8.80;7.90;;;;;;;17.17;64.94;99837.29;154015;1101;104648;-75
2021/07/06 02:29:37;;;;;;;7.93;7.18;;;;;;;17.12;65.05;99837.89;153952;1096;103217;-73
2021/07/06 02:32:42;;;;;;;7.80;6.18;;;;;;;17.14;65.22;99845.78;153998;1101;103235;-73
2021/07/06 02:35:48;;;;;;;7.28;6.58;;;;;;;17.15;64.84;99845.58;153978;1101;103162;-74
2021/07/06 02:38:53;;;;;;;8.63;7.35;;;;;;;17.17;65.11;99848.07;154019;1101;103511;-76
2021/07/06 02:41:58;;;;;;;8.15;7.40;;;;;;;17.18;65.01;99845.14;154116;1101;103195;-76
2021/07/06 02:45:04;;;;;;;8.47;7.63;;;;;;;17.19;65.07;99854.91;153958;1095;103192;-76
2021/07/06 02:48:09;;;;;;;8.30;7.50;;;;;;;17.21;65.06;99852.02;153962;1101;103149;-76
2021/07/06 02:51:17;;;;;;;8.55;7.75;;;;;;;17.21;65.13;99850.14;153974;1095;103155;-73
2021/07/06 02:54:22;;;;;;;8.30;7.50;;;;;;;17.19;65.16;99857.61;153962;1101;103132;-74
2021/07/06 02:57:36;;;;;;;8.38;7.60;;;;;;;17.19;65.06;99867.56;153963;1101;103128;-74
2021/07/06 03:00:41;;;;;;;9.73;8.17;;;;;;;17.17;65.04;99865.07;153975;1101;103247;-73
2021/07/06 03:03:46;;;;;;;8.40;7.60;;;;;;;17.15;65.23;99866.29;153971;1101;103129;-75
2021/07/06 03:06:51;;;;;;;8.90;6.75;;;;;;;17.20;65.11;99875.42;154041;1101;103121;-74
2021/07/06 03:09:56;;;;;;;7.90;7.07;;;;;;;17.26;65.09;99884.56;154068;1101;103705;-75
2021/07/06 03:13:02;;;;;;;8.47;7.50;;;;;;;17.32;65.42;99885.61;154138;1101;103144;-75
2021/07/06 03:16:07;;;;;;;10.50;8.10;;;;;;;17.37;65.21;99883.13;154003;1096;103213;-77
2021/07/06 03:19:13;;;;;;;10.43;8.17;;;;;;;17.44;65.36;99878.58;153990;1096;103129;-77
2021/07/06 03:22:18;;;;;;;8.43;7.57;;;;;;;17.57;65.15;99883.12;153959;1095;103184;-76
2021/07/06 03:25:26;;;;;;;8.60;7.50;;;;;;;17.72;65.11;99877.52;153963;1101;103192;-76
2021/07/06 03:28:31;;;;;;;8.78;7.90;;;;;;;17.88;64.98;99874.42;153963;1101;103197;-75
2021/07/06 03:31:36;;;;;;;7.95;7.15;;;;;;;18.05;65.00;99883.73;153952;1096;103203;-76
2021/07/06 03:34:41;;;;;;;7.30;5.90;;;;;;;18.27;64.84;99886.16;153993;1101;103564;-76
2021/07/06 03:37:47;;;;;;;7.18;6.53;;;;;;;18.49;64.76;99883.17;153977;1096;103122;-74
2021/07/06 03:40:52;;;;;;;7.90;7.10;;;;;;;18.75;64.57;99874.95;153922;1095;103140;-75
2021/07/06 03:43:57;;;;;;;8.13;7.40;;;;;;;18.95;64.62;99882.96;154101;1101;103093;-74
2021/07/06 03:47:03;;;;;;;7.87;7.17;;;;;;;19.18;64.33;99884.28;153967;1101;103254;-75
2021/07/06 03:50:11;;;;;;;7.83;7.13;;;;;;;19.41;64.32;99886.41;154105;1101;103192;-75
2021/07/06 03:53:16;;;;;;;8.75;7.90;;;;;;;19.60;63.97;99884.59;153976;1096;103209;-74
2021/07/06 03:56:21;;;;;;;9.90;8.90;;;;;;;19.79;64.09;99880.08;154073;1101;103272;-75
2021/07/06 03:59:26;;;;;;;9.33;8.40;;;;;;;19.97;63.84;99890.92;154083;1101;103127;-76
2021/07/06 04:02:31;;;;;;;8.03;7.23;;;;;;;20.14;63.88;99890.34;153934;1096;103254;-77
2021/07/06 04:05:36;;;;;;;6.87;6.27;;;;;;;20.33;63.97;99894.72;153962;1096;103306;-77
2021/07/06 04:08:41;;;;;;;6.85;6.15;;;;;;;20.58;63.74;99885.67;153979;1101;103151;-77
2021/07/06 04:11:46;;;;;;;7.78;7.08;;;;;;;20.84;63.55;99895.35;153978;1101;103122;-78
2021/07/06 04:14:51;;;;;;;8.03;6.90;;;;;;;21.06;63.69;99895.69;153983;1101;103567;-76
2021/07/06 04:17:56;;;;;;;7.97;7.27;;;;;;;21.29;63.54;99902.25;153950;1101;103278;-77
2021/07/06 04:21:03;;;;;;;7.67;6.97;;;;;;;21.44;63.49;99894.52;154011;1096;103125;-77
2021/07/06 04:24:08;;;;;;;8.30;7.50;;;;;;;21.62;63.32;99895.48;154056;1096;103144;-74
2021/07/06 04:27:13;;;;;;;9.35;7.58;;;;;;;21.80;63.34;99900.80;153996;1096;103125;-78
2021/07/06 04:30:20;;;;;;;8.80;7.97;;;;;;;21.97;63.32;99906.35;153966;1101;103136;-76
2021/07/06 04:33:25;;;;;;;8.83;7.43;;;;;;;22.12;63.27;99900.45;153979;1101;103202;-76
2021/07/06 04:36:30;;;;;;;9.60;7.25;;;;;;;22.28;63.35;99893.47;153970;1101;103556;-76
2021/07/06 04:39:36;;;;;;;6.65;6.05;;;;;;;22.46;63.60;99895.20;154163;1095;103206;-77
2021/07/06 04:42:41;;;;;;;8.30;6.83;;;;;;;22.68;63.25;99900.83;154006;1101;103126;-78
2021/07/06 04:45:46;;;;;;;7.43;6.73;;;;;;;22.88;63.19;99897.67;153947;1101;103131;-77
2021/07/06 04:48:51;;;;;;;7.90;7.20;;;;;;;23.07;63.00;99901.86;153927;1096;103202;-77
2021/07/06 04:51:56;;;;;;;8.50;7.70;;;;;;;23.26;63.26;99890.77;153989;1096;103110;-77
2021/07/06 04:55:01;;;;;;;7.85;7.15;;;;;;;23.43;62.89;99894.33;153973;1101;103129;-75
2021/07/06 04:58:07;;;;;;;9.03;8.13;;;;;;;23.61;62.99;99895.16;153923;1101;103116;-76
2021/07/06 05:01:13;;;;;;;8.60;7.77;;;;;;;23.70;62.20;99902.66;153951;1101;103150;-76
2021/07/06 05:04:19;;;;;;;8.65;7.85;;;;;;;23.81;62.75;99905.59;153970;1096;103311;-76
2021/07/06 05:07:24;;;;;;;7.68;6.85;;;;;;;23.94;62.31;99904.41;153993;1101;103125;-77
2021/07/06 05:10:29;;;;;;;8.75;7.95;;;;;;;24.06;62.21;99907.88;153983;1101;103233;-76
2021/07/06 05:13:34;;;;;;;7.53;6.83;;;;;;;24.15;61.84;99913.70;154097;1096;103136;-76
2021/07/06 05:16:40;;;;;;;7.97;7.27;;;;;;;24.24;62.08;99921.20;153987;1101;103236;-78
2021/07/06 05:19:44;;;;;;;8.05;7.33;;;;;;;24.27;61.47;99931.61;153933;1101;103199;-76
2021/07/06 05:22:50;;;;;;;8.65;7.85;;;;;;;24.36;61.31;99933.89;153975;1101;103547;-78
2021/07/06 05:25:55;;;;;;;8.33;7.53;;;;;;;24.43;61.18;99927.18;153941;1101;103104;-74
2021/07/06 05:29:00;;;;;;;9.08;8.23;;;;;;;24.47;60.83;99930.23;153985;1101;103122;-75
2021/07/06 05:32:06;;;;;;;8.90;8.03;;;;;;;24.48;60.85;99931.86;153981;1096;103135;-78
2021/07/06 05:35:12;;;;;;;7.50;6.77;;;;;;;24.51;61.09;99931.41;154054;1096;103341;-80
2021/07/06 05:38:17;;;;;;;8.05;7.23;;;;;;;24.57;60.64;99930.38;154084;1101;103249;-76
2021/07/06 05:41:23;;;;;;;9.07;8.27;;;;;;;24.60;59.41;99929.89;153959;1101;103288;-77
2021/07/06 05:44:29;;;;;;;12.93;9.37;;;;;;;24.49;59.14;99936.26;153940;1101;103151;-77
2021/07/06 05:47:35;;;;;;;10.38;7.95;;;;;;;24.37;60.10;99930.11;153983;1101;103213;-77
2021/07/06 05:50:40;;;;;;;10.28;9.33;;;;;;;24.33;60.00;99934.39;153965;1101;103180;-77
2021/07/06 05:53:48;;;;;;;10.50;9.50;;;;;;;24.27;60.18;99939.80;154115;1101;103189;-77
2021/07/06 05:56:53;;;;;;;11.55;10.35;;;;;;;24.28;59.90;99935.97;154030;1096;103139;-77
2021/07/06 05:59:58;;;;;;;10.67;9.50;;;;;;;24.27;59.71;99936.25;153960;1096;103585;-77
2021/07/06 06:03:04;;;;;;;11.07;10.07;;;;;;;24.24;59.93;99942.19;153940;1096;103138;-77
2021/07/06 06:06:10;;;;;;;10.43;9.33;;;;;;;24.27;60.15;99942.52;153958;1101;103183;-77
2021/07/06 06:09:15;;;;;;;10.00;9.13;;;;;;;24.31;59.02;99937.39;153998;1101;103179;-77
2021/07/06 06:12:20;;;;;;;10.03;9.03;;;;;;;24.26;59.75;99938.13;153927;1101;103256;-76
2021/07/06 06:15:25;;;;;;;10.60;9.60;;;;;;;24.34;59.36;99936.87;153913;1096;103137;-77
2021/07/06 06:18:30;;;;;;;10.70;9.73;;;;;;;24.20;59.66;99941.86;153982;1096;103220;-77
2021/07/06 06:21:35;;;;;;;9.80;8.90;;;;;;;24.24;59.86;99934.83;153981;1101;103482;-77
2021/07/06 06:24:40;;;;;;;9.67;8.77;;;;;;;24.32;59.66;99944.48;154040;1095;103169;-76
2021/07/06 06:27:45;;;;;;;10.40;9.33;;;;;;;24.36;59.19;99947.53;153981;1096;103518;-74
2021/07/06 06:30:50;;;;;;;9.05;8.15;;;;;;;24.29;59.42;99945.81;153962;1101;103131;-73
2021/07/06 06:33:55;;;;;;;8.10;7.33;;;;;;;24.33;59.48;99942.56;153935;1101;103189;-73
2021/07/06 06:37:00;;;;;;;7.30;6.58;;;;;;;24.35;59.55;99946.72;153933;1101;103269;-74
2021/07/06 06:40:08;;;;;;;8.45;7.70;;;;;;;24.33;59.83;99946.14;153968;1101;103193;-74
2021/07/06 06:43:13;;;;;;;8.17;7.37;;;;;;;24.32;59.29;99954.56;154008;1101;103246;-73
2021/07/06 06:46:19;;;;;;;7.43;6.63;;;;;;;24.33;59.18;99950.75;153974;1101;103250;-73
2021/07/06 06:49:25;;;;;;;7.10;6.50;;;;;;;24.40;59.46;99956.85;153973;1096;103130;-73
2021/07/06 06:52:30;;;;;;;6.50;5.90;;;;;;;24.44;59.03;99963.45;153942;1096;103292;-73
2021/07/06 06:55:35;;;;;;;6.68;5.95;;;;;;;24.45;58.23;99960.48;153993;1101;103253;-74
2021/07/06 06:58:40;;;;;;;6.70;6.10;;;;;;;24.33;56.35;99961.66;153956;1101;103168;-73
2021/07/06 07:01:45;;;;;;;7.18;6.43;;;;;;;24.19;57.53;99967.49;153921;1101;103131;-73
2021/07/06 07:04:52;;;;;;;5.35;4.85;;;;;;;24.14;55.88;99964.68;153961;1096;103138;-73
2021/07/06 07:07:58;;;;;;;6.03;4.97;;;;;;;24.09;56.49;99961.87;153968;1101;103148;-73
2021/07/06 07:11:03;;;;;;;4.90;4.50;;;;;;;24.12;55.20;99964.11;153992;1096;103047;-73
2021/07/06 07:14:09;;;;;;;5.88;4.50;;;;;;;24.16;56.75;99964.44;153923;1101;103221;-73
2021/07/06 07:17:15;;;;;;;4.68;4.28;;;;;;;24.21;57.22;99964.48;153921;1101;103220;-73
2021/07/06 07:20:20;;;;;;;5.73;5.23;;;;;;;24.32;57.18;99962.75;153949;1096;103110;-73
2021/07/06 07:23:25;;;;;;;5.60;5.10;;;;;;;24.44;56.77;99964.30;154009;1101;103221;-74
2021/07/06 07:26:30;;;;;;;5.53;4.87;;;;;;;24.54;56.94;99969.09;153974;1096;103576;-73
2021/07/06 07:29:36;;;;;;;16.53;14.85;;;;;;;24.62;57.01;99963.19;153991;1101;103282;-73
2021/07/06 07:32:41;;;;;;;7.68;6.95;;;;;;;24.64;56.40;99973.86;153942;1101;103257;-73
2021/07/06 07:35:46;;;;;;;6.85;6.15;;;;;;;24.65;56.18;99962.70;153966;1101;103230;-73
2021/07/06 07:38:51;;;;;;;32.17;28.83;;;;;;;24.72;56.27;99967.13;153911;1101;103362;-73
2021/07/06 07:41:56;;;;;;;10.70;9.53;;;;;;;24.77;56.06;99961.72;154002;1101;103198;-73
2021/07/06 07:45:01;;;;;;;6.45;5.85;;;;;;;24.85;55.50;99961.30;153992;1095;103209;-73
2021/07/06 07:48:08;;;;;;;4.75;4.35;;;;;;;24.93;55.74;99957.29;154051;1101;103101;-74
2021/07/06 07:51:13;;;;;;;3.60;3.30;;;;;;;25.01;55.75;99968.56;154027;1101;103182;-73
2021/07/06 07:54:18;;;;;;;3.60;3.30;;;;;;;25.11;55.46;99964.30;153925;1101;103207;-73
2021/07/06 07:57:26;;;;;;;4.58;3.90;;;;;;;25.17;54.02;99968.73;153988;1101;103467;-73
2021/07/06 08:00:31;;;;;;;4.10;3.80;;;;;;;25.19;54.80;99963.84;154026;1101;103147;-73
2021/07/06 08:03:36;;;;;;;5.40;3.80;;;;;;;25.20;53.48;99973.69;154074;1096;103252;-73
2021/07/06 08:06:41;;;;;;;3.45;3.15;;;;;;;25.20;54.47;99970.96;153950;1096;103158;-73
2021/07/06 08:09:46;;;;;;;3.80;3.50;;;;;;;25.28;53.15;99971.34;154018;1101;103285;-73
2021/07/06 08:12:51;;;;;;;3.73;3.35;;;;;;;25.33;54.08;99958.81;153941;1094;103195;-73
2021/07/06 08:15:57;;;;;;;4.00;3.50;;;;;;;25.42;54.27;99958.12;154067;1101;103054;-73
2021/07/06 08:19:02;;;;;;;3.63;3.08;;;;;;;25.47;53.69;99965.52;154083;1101;103230;-73
2021/07/06 08:22:07;;;;;;;3.17;2.87;;;;;;;25.51;54.07;99960.37;154041;1101;103247;-73
2021/07/06 08:25:13;;;;;;;3.30;3.10;;;;;;;25.58;53.65;99959.07;153974;1094;103259;-74
2021/07/06 08:28:19;;;;;;;3.63;2.87;;;;;;;25.68;53.59;99952.88;153998;1096;103127;-73
2021/07/06 08:31:24;;;;;;;3.53;2.90;;;;;;;25.75;53.39;99961.68;153954;1095;103110;-73
2021/07/06 08:34:29;;;;;;;7.45;4.48;;;;;;;25.80;53.29;99949.95;153943;1097;103199;-73
2021/07/06 08:37:34;;;;;;;4.38;2.68;;;;;;;25.96;53.54;99961.84;153943;1101;103244;-73
2021/07/06 08:40:39;;;;;;;3.23;2.93;;;;;;;26.09;53.01;99964.13;153910;1101;103305;-73
2021/07/06 08:43:44;;;;;;;3.20;2.90;;;;;;;26.19;52.58;99966.95;153980;1096;103127;-74
2021/07/06 08:46:51;;;;;;;2.93;2.60;;;;;;;26.34;52.62;99962.66;153971;1095;103113;-73
2021/07/06 08:49:56;;;;;;;3.23;2.27;;;;;;;26.45;51.92;99967.09;153927;1101;103508;-73
2021/07/06 08:53:01;;;;;;;3.37;2.50;;;;;;;26.55;52.14;99960.84;153993;1095;103292;-73
2021/07/06 08:56:07;;;;;;;3.70;3.20;;;;;;;26.57;51.55;99959.48;153928;1101;103289;-73
2021/07/06 08:59:12;;;;;;;3.40;3.10;;;;;;;26.56;52.33;99971.53;153985;1101;103142;-73
2021/07/06 09:02:22;;;;;;;3.40;3.10;;;;;;;26.66;51.96;99970.78;153948;1096;103102;-73
2021/07/06 09:05:29;;;;;;;3.50;3.20;;;;;;;26.71;51.55;99970.79;153950;1101;103154;-75
2021/07/06 09:08:34;;;;;;;3.27;3.00;;;;;;;26.88;51.71;99973.33;153998;1101;103182;-73
2021/07/06 09:11:47;;;;;;;3.13;2.93;;;;;;;27.08;51.20;99977.22;153974;1101;103189;-74
2021/07/06 09:14:52;;;;;;;2.98;2.78;;;;;;;27.31;50.92;99968.56;154001;1101;103113;-74
2021/07/06 09:18:09;;;;;;;3.37;3.07;;;;;;;27.47;51.06;99974.88;153952;1096;103065;-74
2021/07/06 09:21:15;;;;;;;5.10;3.13;;;;;;;27.60;50.39;99973.53;153983;1096;103220;-74
2021/07/06 09:24:27;;;;;;;3.00;2.70;;;;;;;27.79;50.52;99979.27;153949;1101;103252;-73
2021/07/06 09:27:34;;;;;;;3.17;2.90;;;;;;;27.98;50.43;99977.67;153934;1101;103291;-73
2021/07/06 09:30:44;;;;;;;3.10;2.90;;;;;;;28.07;49.30;99966.95;153984;1096;103128;-73
2021/07/06 09:33:56;;;;;;;3.33;3.03;;;;;;;28.02;49.61;99964.20;153917;1101;103189;-73
2021/07/06 09:37:01;;;;;;;3.25;2.95;;;;;;;27.96;49.74;99970.80;153976;1096;103246;-74
2021/07/06 09:40:23;;;;;;;3.45;2.48;;;;;;;27.99;49.90;99970.25;153969;1096;103227;-74
2021/07/06 09:43:30;;;;;;;4.68;3.60;;;;;;;28.00;46.55;99964.50;153798;1101;103187;-72
2021/07/06 09:46:47;;;;;;;3.73;3.33;;;;;;;27.86;46.26;99966.11;153993;1101;103130;-72
2021/07/06 09:49:57;;;;;;;2.80;2.60;;;;;;;27.79;48.67;99971.89;154058;1096;103110;-72
2021/07/06 09:53:03;;;;;;;3.48;2.63;;;;;;;27.97;48.68;99956.81;153951;1096;103195;-72
2021/07/06 09:56:12;;;;;;;3.10;2.80;;;;;;;28.17;47.91;99966.92;154158;1101;103119;-72
2021/07/06 09:59:18;;;;;;;2.60;2.40;;;;;;;28.35;48.47;99959.20;154143;1101;103299;-72
2021/07/06 10:02:24;;;;;;;2.70;2.50;;;;;;;28.55;48.32;99967.41;154043;1096;103663;-73
2021/07/06 10:05:31;;;;;;;3.03;2.73;;;;;;;28.72;47.85;99963.52;154092;1101;103249;-73
2021/07/06 10:08:37;;;;;;;3.65;2.65;;;;;;;28.84;47.71;99961.25;154112;1101;103214;-73
2021/07/06 10:11:42;;;;;;;2.70;2.50;;;;;;;28.79;47.65;99964.01;154009;1095;103215;-73
2021/07/06 10:14:48;;;;;;;3.10;2.85;;;;;;;28.71;45.83;99959.11;154003;1101;103102;-73
2021/07/06 10:17:54;;;;;;;2.70;2.10;;;;;;;28.53;46.85;99957.82;154077;1096;103142;-73
2021/07/06 10:21:00;;;;;;;2.50;2.30;;;;;;;28.65;46.81;99952.01;154173;1096;103136;-73
2021/07/06 10:24:06;;;;;;;2.60;2.40;;;;;;;28.73;46.12;99957.72;154129;1096;103137;-73
2021/07/06 10:27:18;;;;;;;2.80;2.50;;;;;;;28.88;45.40;99954.09;154084;1101;103230;-73
2021/07/06 10:30:28;;;;;;;2.58;2.33;;;;;;;29.02;46.42;99947.98;154024;1101;103186;-73
2021/07/06 10:33:32;;;;;;;;;;;;;;;28.92;45.33;99944.17;154003;1101;103125;-73
2021/07/06 10:36:45;;;;;;;2.07;1.97;;;;;;;28.75;45.79;99946.46;153957;1101;103119;-73
2021/07/06 10:39:50;;;;;;;2.47;2.20;;;;;;;28.66;45.55;99940.75;153962;1101;103144;-73
2021/07/06 10:42:55;;;;;;;2.60;2.40;;;;;;;28.63;46.18;99944.05;154031;1096;103246;-74
2021/07/06 10:46:15;;;;;;;3.40;2.50;;;;;;;28.60;45.98;99936.39;153933;1101;103220;-73
2021/07/06 10:49:33;;;;;;;2.68;2.48;;;;;;;28.71;45.60;99931.66;154086;1101;103128;-73
2021/07/06 10:52:38;;;;;;;2.60;2.40;;;;;;;28.77;45.43;99938.77;154068;1096;103146;-73
2021/07/06 10:55:44;;;;;;;2.70;2.50;;;;;;;28.97;45.30;99935.10;153948;1101;103669;-73
2021/07/06 10:58:54;;;;;;;2.80;2.60;;;;;;;29.11;45.13;99940.78;153981;1101;103259;-73
2021/07/06 11:02:04;;;;;;;2.90;2.70;;;;;;;29.30;45.22;99939.03;153986;1101;103172;-73
2021/07/06 11:05:10;;;;;;;4.07;2.80;;;;;;;29.46;45.03;99941.67;154068;1096;103180;-73
2021/07/06 11:08:43;;;;;;;3.85;2.70;;;;;;;29.59;44.78;99934.70;153964;1094;103200;-73
2021/07/06 11:11:48;;;;;;;4.13;2.60;;;;;;;29.74;44.69;99923.61;153960;1101;103121;-73
2021/07/06 11:14:54;;;;;;;2.90;2.70;;;;;;;29.92;44.13;99927.55;154103;1095;103557;-73
2021/07/06 11:18:04;;;;;;;2.93;2.30;;;;;;;30.07;44.38;99923.84;153996;1101;103239;-73
2021/07/06 11:21:38;;;;;;;3.00;2.70;;;;;;;30.17;44.03;99923.72;154021;1101;103196;-73
2021/07/06 11:24:46;;;;;;;2.70;2.50;;;;;;;30.20;43.72;99920.39;154008;1101;103128;-74
2021/07/06 11:28:01;;;;;;;2.63;2.43;;;;;;;30.26;43.95;99921.97;154201;1101;103184;-74
2021/07/06 11:31:19;;;;;;;2.83;2.60;;;;;;;30.14;43.63;99921.56;154138;1096;103231;-73
2021/07/06 11:34:34;;;;;;;2.68;2.48;;;;;;;29.81;43.05;99921.32;153974;1096;103250;-73
2021/07/06 11:37:46;;;;;;;2.55;2.35;;;;;;;29.68;43.43;99911.80;153999;1101;103124;-73
2021/07/06 11:40:53;;;;;;;3.07;2.50;;;;;;;29.73;43.49;99914.52;153992;1101;103212;-73
2021/07/06 11:43:58;;;;;;;3.00;2.80;;;;;;;29.84;42.37;99919.94;154026;1101;103128;-73
2021/07/06 11:47:15;;;;;;;3.67;2.50;;;;;;;29.92;43.17;99922.05;154041;1094;103266;-73
2021/07/06 11:50:29;;;;;;;2.60;2.40;;;;;;;29.95;42.94;99910.48;153960;1101;103334;-73
2021/07/06 11:53:38;;;;;;;2.83;2.50;;;;;;;29.90;42.99;99908.58;154013;1101;103129;-73
2021/07/06 11:56:43;;;;;;;2.68;2.48;;;;;;;29.86;43.04;99907.53;153997;1095;103156;-73
2021/07/06 11:59:48;;;;;;;3.10;2.83;;;;;;;29.82;42.93;99898.22;153950;1101;103559;-73
2021/07/06 12:03:13;;;;;;;4.05;2.75;;;;;;;29.88;42.57;99898.99;153997;1101;103228;-73
2021/07/06 12:06:20;;;;;;;3.48;3.18;;;;;;;29.88;42.37;99894.30;154001;1101;103193;-73
2021/07/06 12:09:25;;;;;;;3.30;2.70;;;;;;;29.88;40.92;99885.23;154016;1101;103161;-73
2021/07/06 12:12:30;;;;;;;2.70;2.50;;;;;;;29.86;42.51;99884.71;153948;1101;103219;-73
2021/07/06 12:15:44;;;;;;;2.70;2.50;;;;;;;29.93;42.34;99882.45;153975;1101;103138;-73
2021/07/06 12:18:56;;;;;;;3.10;2.70;;;;;;;29.97;42.05;99883.50;153997;1101;103224;-73
2021/07/06 12:22:01;;;;;;;3.17;2.50;;;;;;;29.97;42.27;99883.50;153956;1096;103265;-73
2021/07/06 12:25:08;;;;;;;2.60;2.40;;;;;;;30.03;41.99;99871.32;153981;1096;103183;-74
2021/07/06 12:28:13;;;;;;;2.77;2.50;;;;;;;30.08;42.02;99881.44;154011;1096;103139;-73
2021/07/06 12:31:22;;;;;;;3.03;2.60;;;;;;;30.05;41.31;99876.53;153946;1094;104018;-73
2021/07/06 12:34:37;;;;;;;2.60;2.40;;;;;;;30.03;41.55;99879.58;154013;1101;103187;-74
2021/07/06 12:37:43;;;;;;;2.70;2.50;;;;;;;29.97;41.68;99869.74;154033;1096;103322;-73
2021/07/06 12:40:48;;;;;;;2.60;2.40;;;;;;;29.90;41.87;99864.57;154062;1096;103220;-73
2021/07/06 12:44:00;;;;;;;2.40;2.20;;;;;;;29.84;41.94;99859.43;153975;1096;103127;-73
2021/07/06 12:47:25;;;;;;;3.03;2.83;;;;;;;29.83;42.16;99875.13;153979;1101;103233;-73
2021/07/06 12:50:33;;;;;;;3.10;2.60;;;;;;;29.83;41.34;99871.53;153975;1096;103249;-73
2021/07/06 12:53:38;;;;;;;3.03;2.83;;;;;;;29.77;41.52;99869.95;153978;1101;103582;-73
2021/07/06 12:56:48;;;;;;;3.33;2.60;;;;;;;29.68;41.34;99873.30;154019;1101;103198;-73
2021/07/06 13:00:06;;;;;;;2.58;2.38;;;;;;;29.66;41.27;99864.53;153998;1096;103183;-73
2021/07/06 13:03:13;;;;;;;2.63;2.43;;;;;;;29.64;41.29;99880.50;153927;1101;103106;-73
2021/07/06 13:06:23;;;;;;;2.53;2.30;;;;;;;29.63;41.13;99869.78;154222;1101;103147;-73
2021/07/06 13:09:29;;;;;;;3.03;2.80;;;;;;;29.61;41.56;99863.75;154089;1101;103104;-73
2021/07/06 13:12:34;;;;;;;3.40;2.60;;;;;;;29.60;41.14;99851.10;154105;1101;103587;-73
2021/07/06 13:15:42;;;;;;;2.55;2.35;;;;;;;29.60;41.04;99862.94;154158;1096;103225;-73
2021/07/06 13:18:47;;;;;;;3.85;2.70;;;;;;;29.60;40.98;99865.69;153941;1101;103103;-73
2021/07/06 13:21:53;;;;;;;2.70;2.50;;;;;;;29.62;41.43;99862.63;153927;1101;103365;-73
2021/07/06 13:24:59;;;;;;;2.60;2.40;;;;;;;29.67;40.75;99860.66;153950;1096;103238;-73
2021/07/06 13:28:05;;;;;;;3.10;2.87;;;;;;;29.71;41.07;99861.70;154024;1101;103142;-73
2021/07/06 13:31:10;;;;;;;2.83;2.63;;;;;;;29.71;40.73;99856.20;153942;1096;103201;-73
2021/07/06 13:34:15;;;;;;;3.25;2.68;;;;;;;29.74;40.44;99857.61;153919;1101;103134;-74
2021/07/06 13:37:20;;;;;;;2.87;2.67;;;;;;;29.73;40.78;99859.52;153940;1096;103260;-73
2021/07/06 13:40:25;;;;;;;3.87;2.80;;;;;;;29.72;40.26;99857.05;153940;1096;103319;-72
2021/07/06 13:43:32;;;;;;;2.83;2.63;;;;;;;29.61;40.26;99853.57;153955;1101;103150;-73
2021/07/06 13:46:37;;;;;;;2.53;2.33;;;;;;;29.48;40.49;99856.98;154008;1096;103227;-73
2021/07/06 13:49:42;;;;;;;4.28;2.60;;;;;;;29.48;40.54;99849.55;153954;1101;103203;-73
2021/07/06 13:52:47;;;;;;;3.95;2.80;;;;;;;29.43;40.25;99848.78;153907;1096;103230;-73
2021/07/06 13:55:53;;;;;;;2.70;2.50;;;;;;;29.29;40.29;99849.47;153957;1101;103276;-73
2021/07/06 13:58:58;;;;;;;3.00;2.70;;;;;;;29.26;40.03;99850.04;153998;1101;103206;-73
2021/07/06 14:02:04;;;;;;;3.80;2.93;;;;;;;29.26;40.17;99847.29;153941;1101;103126;-73
2021/07/06 14:05:11;;;;;;;3.60;3.30;;;;;;;29.28;39.90;99844.27;153969;1101;103198;-73
2021/07/06 14:08:17;;;;;;;3.53;3.23;;;;;;;29.25;39.50;99836.58;154313;1096;103193;-77
2021/07/06 14:11:22;;;;;;;3.63;3.33;;;;;;;29.25;39.84;99837.39;154194;1101;103490;-73
2021/07/06 14:14:27;;;;;;;3.77;3.40;;;;;;;29.25;40.16;99826.40;153960;1101;103147;-73
2021/07/06 14:17:33;;;;;;;3.43;3.13;;;;;;;29.27;40.33;99828.86;153987;1096;103198;-72